createdAt,value
2022-10-03T00:01:22.102Z,14.97
2022-10-03T00:04:05.940Z,14.96
2022-10-03T00:06:47.829Z,14.95
2022-10-03T00:09:29.582Z,14.94
2022-10-03T00:12:42.240Z,14.95
2022-10-03T00:15:18.121Z,14.96
2022-10-03T00:17:57.176Z,14.97
2022-10-03T00:21:02.646Z,14.94
2022-10-03T00:24:11.253Z,14.93
2022-10-03T00:27:03.754Z,14.95
2022-10-03T00:29:39.482Z,14.95
2022-10-03T00:32:33.437Z,14.98
2022-10-03T00:35:20.073Z,15.03
2022-10-03T00:37:59.688Z,15.03
2022-10-03T00:41:09.211Z,15.05
2022-10-03T00:43:54.817Z,15.06
2022-10-03T00:46:25.085Z,15.07
2022-10-03T00:49:14.941Z,15.09
2022-10-03T00:52:17.079Z,15.09
2022-10-03T00:55:35.806Z,15.10
2022-10-03T00:58:11.508Z,15.12
2022-10-03T01:00:38.726Z,15.11
2022-10-03T01:03:15.517Z,15.13
2022-10-03T01:06:03.555Z,15.13
2022-10-03T01:08:43.131Z,15.11
2022-10-03T01:11:19.836Z,15.13
2022-10-03T01:14:01.451Z,15.15
2022-10-03T01:16:39.248Z,15.17
2022-10-03T01:19:39.658Z,15.18
2022-10-03T01:22:29.832Z,15.16
2022-10-03T01:25:05.432Z,15.16
2022-10-03T01:28:07.864Z,15.16
2022-10-03T01:30:39.581Z,15.13
2022-10-03T01:33:14.122Z,15.14
2022-10-03T01:36:21.380Z,15.14
2022-10-03T01:38:54.297Z,15.13
2022-10-03T01:41:43.054Z,15.13
2022-10-03T01:44:24.429Z,15.11
2022-10-03T01:47:13.080Z,15.11
2022-10-03T01:49:51.890Z,15.10
2022-10-03T01:52:45.669Z,15.11
2022-10-03T01:55:22.747Z,15.13
2022-10-03T01:57:57.299Z,15.14
2022-10-03T02:00:25.529Z,15.13
2022-10-03T02:03:20.440Z,15.11
2022-10-03T02:05:55.186Z,15.10
2022-10-03T02:08:29.129Z,15.10
2022-10-03T02:11:03.998Z,15.09
2022-10-03T02:13:45.069Z,15.10
2022-10-03T02:16:26.590Z,15.09
2022-10-03T02:19:21.700Z,15.08
2022-10-03T02:21:51.440Z,15.05
2022-10-03T02:24:27.278Z,15.03
2022-10-03T02:27:09.607Z,15.04
2022-10-03T02:29:36.194Z,15.02
2022-10-03T02:32:21.593Z,15.01
2022-10-03T02:35:16.221Z,14.98
2022-10-03T02:38:05.406Z,14.96
2022-10-03T02:40:53.866Z,14.95
2022-10-03T02:43:41.939Z,14.95
2022-10-03T02:46:33.780Z,14.95
2022-10-03T02:49:38.257Z,14.93
2022-10-03T02:52:20.801Z,14.94
2022-10-03T02:54:57.069Z,14.95
2022-10-03T02:57:48.200Z,14.96
2022-10-03T03:00:19.181Z,14.97
2022-10-03T03:03:06.390Z,14.97
2022-10-03T03:05:51.783Z,14.97
2022-10-03T03:08:55.286Z,14.92
2022-10-03T03:11:34.244Z,14.87
2022-10-03T03:14:16.196Z,14.84
2022-10-03T03:16:46.185Z,14.80
2022-10-03T03:19:18.560Z,14.77
2022-10-03T03:21:59.042Z,14.75
2022-10-03T03:24:37.812Z,14.73
2022-10-03T03:27:22.071Z,14.69
2022-10-03T03:30:04.029Z,14.66
2022-10-03T03:32:37.975Z,14.64
2022-10-03T03:35:18.166Z,14.63
2022-10-03T03:38:06.708Z,14.63
2022-10-03T03:41:03.827Z,14.65
2022-10-03T03:43:44.618Z,14.65
2022-10-03T03:46:44.638Z,14.67
2022-10-03T03:49:49.954Z,14.70
2022-10-03T03:52:54.684Z,14.74
2022-10-03T03:55:32.521Z,14.75
2022-10-03T03:58:22.404Z,14.78
2022-10-03T04:01:05.647Z,14.80
2022-10-03T04:04:10.154Z,14.83
2022-10-03T04:07:15.483Z,14.84
2022-10-03T04:09:59.675Z,14.82
2022-10-03T04:13:04.800Z,14.79
2022-10-03T04:15:56.255Z,14.73
2022-10-03T04:18:58.571Z,14.67
2022-10-03T04:21:55.543Z,14.64
2022-10-03T04:24:40.629Z,14.62
2022-10-03T04:27:34.782Z,14.58
2022-10-03T04:30:24.542Z,14.53
2022-10-03T04:33:01.264Z,14.52
2022-10-03T04:35:55.782Z,14.49
2022-10-03T04:38:50.179Z,14.48
2022-10-03T04:41:37.108Z,14.46
2022-10-03T04:44:15.573Z,14.42
2022-10-03T04:47:00.484Z,14.41
2022-10-03T04:49:53.451Z,14.39
2022-10-03T04:52:23.036Z,14.36
2022-10-03T04:55:11.145Z,14.35
2022-10-03T04:57:47.021Z,14.34
2022-10-03T05:00:31.301Z,14.33
2022-10-03T05:03:14.729Z,14.34
2022-10-03T05:05:58.480Z,14.34
2022-10-03T05:08:54.587Z,14.32
2022-10-03T05:11:23.063Z,14.31
2022-10-03T05:14:11.233Z,14.29
2022-10-03T05:16:43.559Z,14.28
2022-10-03T05:19:36.329Z,14.30
2022-10-03T05:22:32.745Z,14.32
2022-10-03T05:25:15.032Z,14.34
2022-10-03T05:27:51.612Z,14.36
2022-10-03T05:30:36.267Z,14.40
2022-10-03T05:33:08.821Z,14.42
2022-10-03T05:35:41.614Z,14.48
2022-10-03T05:38:11.170Z,14.50
2022-10-03T05:40:40.473Z,14.51
2022-10-03T05:43:35.975Z,14.53
2022-10-03T05:46:20.865Z,14.52
2022-10-03T05:48:50.470Z,14.51
2022-10-03T05:51:41.390Z,14.51
2022-10-03T05:54:36.655Z,14.51
2022-10-03T05:57:30.379Z,14.52
2022-10-03T06:00:16.723Z,14.56
2022-10-03T06:03:14.469Z,14.63
2022-10-03T06:05:46.173Z,14.72
2022-10-03T06:08:41.744Z,14.78
2022-10-03T06:11:34.845Z,14.85
2022-10-03T06:14:19.708Z,14.91
2022-10-03T06:17:14.226Z,14.96
2022-10-03T06:20:01.088Z,15.00
2022-10-03T06:23:05.578Z,15.06
2022-10-03T06:25:35.565Z,15.12
2022-10-03T06:28:18.197Z,15.19
2022-10-03T06:31:08.410Z,15.28
2022-10-03T06:34:09.773Z,15.34
2022-10-03T06:37:19.379Z,15.38
2022-10-03T06:40:39.961Z,15.42
2022-10-03T06:43:31.866Z,15.43
2022-10-03T06:46:16.863Z,15.44
2022-10-03T06:48:55.726Z,15.43
2022-10-03T06:51:51.504Z,15.44
2022-10-03T06:54:44.394Z,15.46
2022-10-03T06:57:18.990Z,15.50
2022-10-03T06:59:54.914Z,15.51
2022-10-03T07:02:38.167Z,15.55
2022-10-03T07:05:40.997Z,15.58
2022-10-03T07:08:15.640Z,15.60
2022-10-03T07:10:58.792Z,15.61
2022-10-03T07:13:48.214Z,15.62
2022-10-03T07:16:26.585Z,15.62
2022-10-03T07:19:07.622Z,15.62
2022-10-03T07:22:18.562Z,15.70
2022-10-03T07:25:15.203Z,16.00
2022-10-03T07:27:51.600Z,16.34
2022-10-03T07:30:27.039Z,16.67
2022-10-03T07:33:34.336Z,17.09
2022-10-03T07:36:50.145Z,17.57
2022-10-03T07:39:35.382Z,17.78
2022-10-03T07:42:08.261Z,17.92
2022-10-03T07:45:12.198Z,17.98
2022-10-03T07:47:54.346Z,17.88
2022-10-03T07:50:31.150Z,17.74
2022-10-03T07:53:21.221Z,17.61
2022-10-03T07:56:07.288Z,17.46
2022-10-03T07:59:20.349Z,17.34
2022-10-03T08:01:47.265Z,17.26
2022-10-03T08:04:38.194Z,17.18
2022-10-03T08:07:26.714Z,17.12
2022-10-03T08:10:09.336Z,17.06
2022-10-03T08:12:51.992Z,17.03
2022-10-03T08:15:36.657Z,17.00
2022-10-03T08:18:34.540Z,16.98
2022-10-03T08:21:20.527Z,16.99
2022-10-03T08:24:10.361Z,16.98
2022-10-03T08:26:52.013Z,16.98
2022-10-03T08:29:41.654Z,16.99
2022-10-03T08:32:27.592Z,17.01
2022-10-03T08:35:25.576Z,17.02
2022-10-03T08:38:19.870Z,17.05
2022-10-03T08:41:05.398Z,17.04
2022-10-03T08:44:10.727Z,17.04
2022-10-03T08:47:21.966Z,17.09
2022-10-03T08:50:05.300Z,17.09
2022-10-03T08:53:10.548Z,17.10
2022-10-03T08:56:07.773Z,17.15
2022-10-03T08:58:38.074Z,17.17
2022-10-03T09:01:17.135Z,17.21
2022-10-03T09:04:07.042Z,17.27
2022-10-03T09:10:20.623Z,17.45
2022-10-03T09:13:16.566Z,17.59
2022-10-03T09:16:23.426Z,17.75
2022-10-03T09:19:22.514Z,17.92
2022-10-03T09:22:24.160Z,18.08
2022-10-03T09:25:35.076Z,18.21
2022-10-03T09:28:26.695Z,18.31
2022-10-03T09:31:27.040Z,18.39
2022-10-03T09:34:02.975Z,18.41
2022-10-03T09:37:34.592Z,18.48
2022-10-03T09:40:39.109Z,18.56
2022-10-03T09:43:13.641Z,18.63
2022-10-03T09:45:52.502Z,18.71
2022-10-03T09:48:41.115Z,18.75
2022-10-03T09:51:10.945Z,18.74
2022-10-03T09:54:02.119Z,18.75
2022-10-03T09:56:48.655Z,18.75
2022-10-03T09:59:27.898Z,18.69
2022-10-03T10:02:23.361Z,18.60
2022-10-03T10:05:12.458Z,18.51
2022-10-03T10:08:20.151Z,18.39
2022-10-03T10:11:24.128Z,18.28
2022-10-03T10:14:18.690Z,18.17
2022-10-03T10:17:06.799Z,18.12
2022-10-03T10:19:52.824Z,18.10
2022-10-03T10:22:47.002Z,18.08
2022-10-03T10:25:24.761Z,18.07
2022-10-03T10:28:00.753Z,18.05
2022-10-03T10:30:57.039Z,18.05
2022-10-03T10:34:04.617Z,18.02
2022-10-03T10:37:22.266Z,17.98
2022-10-03T10:40:26.209Z,17.98
2022-10-03T10:43:02.102Z,18.00
2022-10-03T10:45:50.791Z,18.07
2022-10-03T10:48:56.446Z,18.17
2022-10-03T10:51:33.806Z,18.26
2022-10-03T10:57:52.344Z,18.61
2022-10-03T11:00:48.833Z,18.73
2022-10-03T11:03:37.509Z,18.86
2022-10-03T11:06:30.918Z,18.96
2022-10-03T11:09:25.541Z,19.09
2022-10-03T11:12:35.069Z,19.14
2022-10-03T11:16:02.423Z,19.15
2022-10-03T11:19:27.782Z,19.23
2022-10-03T11:22:00.098Z,19.37
2022-10-03T11:24:30.009Z,19.50
2022-10-03T11:27:17.315Z,19.61
2022-10-03T11:30:09.445Z,19.74
2022-10-03T11:33:01.792Z,19.85
2022-10-03T11:35:57.284Z,19.88
2022-10-03T11:38:27.046Z,19.92
2022-10-03T11:41:26.396Z,19.92
2022-10-03T11:44:19.454Z,19.93
2022-10-03T11:46:54.470Z,19.94
2022-10-03T11:49:50.044Z,19.94
2022-10-03T11:52:35.811Z,19.90
2022-10-03T11:55:24.633Z,19.86
2022-10-03T11:58:23.536Z,19.82
2022-10-03T12:01:24.506Z,19.82
2022-10-03T12:04:26.966Z,19.83
2022-10-03T12:07:21.479Z,19.84
2022-10-03T12:10:02.979Z,19.83
2022-10-03T12:13:01.881Z,19.84
2022-10-03T12:15:38.200Z,19.89
2022-10-03T12:18:15.362Z,19.94
2022-10-03T12:21:21.951Z,19.99
2022-10-03T12:24:27.744Z,19.99
2022-10-03T12:27:20.515Z,19.98
2022-10-03T12:30:25.994Z,20.00
2022-10-03T12:33:18.426Z,20.08
2022-10-03T12:36:14.462Z,20.15
2022-10-03T12:38:51.156Z,20.18
2022-10-03T12:44:57.178Z,20.26
2022-10-03T12:47:51.111Z,20.26
2022-10-03T12:50:41.395Z,20.29
2022-10-03T12:53:17.574Z,20.30
2022-10-03T12:56:24.073Z,20.31
2022-10-03T12:59:36.564Z,20.31
2022-10-03T13:02:27.214Z,20.33
2022-10-03T13:05:02.750Z,20.38
2022-10-03T13:07:46.109Z,20.40
2022-10-03T13:10:47.773Z,20.38
2022-10-03T13:13:25.242Z,20.40
2022-10-03T13:16:04.512Z,20.41
2022-10-03T13:18:53.920Z,20.44
2022-10-03T13:21:47.660Z,20.41
2022-10-03T13:24:41.937Z,20.36
2022-10-03T13:27:27.610Z,20.35
2022-10-03T13:30:33.290Z,20.39
2022-10-03T13:33:36.250Z,20.47
2022-10-03T13:36:14.937Z,20.52
2022-10-03T13:42:15.957Z,20.62
2022-10-03T13:45:01.492Z,20.73
2022-10-03T13:47:59.092Z,20.72
2022-10-03T13:50:31.288Z,20.68
2022-10-03T13:53:12.745Z,20.65
2022-10-03T13:55:53.927Z,20.66
2022-10-03T13:58:58.474Z,20.67
2022-10-03T14:01:55.098Z,20.63
2022-10-03T14:04:47.951Z,20.57
2022-10-03T14:07:54.405Z,20.57
2022-10-03T14:11:06.383Z,20.59
2022-10-03T14:14:02.586Z,20.54
2022-10-03T14:17:02.856Z,20.53
2022-10-03T14:19:39.153Z,20.51
2022-10-03T14:22:24.150Z,20.43
2022-10-03T14:25:23.633Z,20.35
2022-10-03T14:28:12.241Z,20.24
2022-10-03T14:31:07.978Z,20.15
2022-10-03T14:33:56.679Z,20.09
2022-10-03T14:37:14.797Z,20.04
2022-10-03T14:40:27.134Z,20.02
2022-10-03T14:43:19.539Z,20.02
2022-10-03T14:46:08.003Z,20.03
2022-10-03T14:48:45.952Z,20.02
2022-10-03T14:52:13.992Z,20.04
2022-10-03T14:54:56.676Z,20.02
2022-10-03T14:57:31.153Z,20.03
2022-10-03T15:00:59.846Z,20.05
2022-10-03T15:03:56.278Z,20.09
2022-10-03T15:06:54.315Z,20.12
2022-10-03T15:12:47.138Z,20.11
2022-10-03T15:15:20.830Z,20.11
2022-10-03T15:18:11.322Z,20.12
2022-10-03T15:24:29.858Z,20.08
2022-10-03T15:27:24.740Z,20.06
2022-10-03T15:30:30.651Z,20.04
2022-10-03T15:33:23.087Z,19.97
2022-10-03T15:35:55.430Z,19.93
2022-10-03T15:38:31.063Z,19.90
2022-10-03T15:41:36.467Z,19.89
2022-10-03T15:44:51.388Z,19.87
2022-10-03T15:47:37.329Z,19.88
2022-10-03T15:50:13.285Z,19.87
2022-10-03T15:53:12.673Z,19.86
2022-10-03T15:55:58.839Z,19.84
2022-10-03T15:58:36.107Z,19.82
2022-10-03T16:01:27.909Z,19.82
2022-10-03T16:50:45.168Z,19.36
2022-10-03T16:53:13.441Z,19.36
2022-10-03T16:55:49.896Z,19.35
2022-10-03T16:58:20.659Z,19.35
2022-10-03T17:01:09.187Z,19.35
2022-10-03T17:03:45.395Z,19.33
2022-10-03T17:06:21.361Z,19.32
2022-10-03T17:08:51.353Z,19.31
2022-10-03T17:11:26.263Z,19.31
2022-10-03T17:13:59.455Z,19.28
2022-10-03T17:17:09.626Z,19.27
2022-10-03T17:19:46.499Z,19.25
2022-10-03T17:22:22.544Z,19.22
2022-10-03T17:24:58.382Z,19.19
2022-10-03T17:27:29.927Z,19.19
2022-10-03T17:30:02.043Z,19.17
2022-10-03T17:32:42.227Z,19.16
2022-10-03T17:35:19.368Z,19.15
2022-10-03T17:38:14.915Z,19.12
2022-10-03T17:41:02.696Z,19.10
2022-10-03T17:43:50.555Z,19.08
2022-10-03T17:46:43.466Z,19.06
2022-10-03T17:49:13.262Z,19.05
2022-10-03T17:51:44.722Z,19.02
2022-10-03T17:54:20.649Z,19.02
2022-10-03T17:56:54.280Z,18.99
2022-10-03T17:59:30.822Z,18.96
2022-10-03T18:02:04.035Z,18.93
2022-10-03T18:04:37.412Z,18.92
2022-10-03T18:07:12.803Z,18.92
2022-10-03T18:09:46.666Z,18.91
2022-10-03T18:12:38.454Z,18.90
2022-10-03T18:15:41.031Z,18.89
2022-10-03T18:18:33.906Z,18.85
2022-10-03T18:21:07.882Z,18.85
2022-10-03T18:23:55.033Z,18.83
2022-10-03T18:26:28.630Z,18.82
2022-10-03T18:29:22.771Z,18.79
2022-10-03T18:32:00.841Z,18.74
2022-10-03T18:34:48.906Z,18.70
2022-10-03T18:37:26.395Z,18.65
2022-10-03T18:39:56.855Z,18.62
2022-10-03T18:42:29.722Z,18.59
2022-10-03T18:44:58.201Z,18.54
2022-10-03T18:47:37.478Z,18.50
2022-10-03T18:50:29.879Z,18.45
2022-10-03T18:52:56.849Z,18.43
2022-10-03T18:55:29.793Z,18.38
2022-10-03T18:58:19.564Z,18.33
2022-10-03T19:01:04.923Z,18.27
2022-10-03T19:03:38.826Z,18.24
2022-10-03T19:06:18.553Z,18.19
2022-10-03T19:08:53.343Z,18.14
2022-10-03T19:11:30.237Z,18.12
2022-10-03T19:14:09.630Z,18.09
2022-10-03T19:17:14.524Z,18.07
2022-10-03T19:19:58.812Z,18.06
2022-10-03T19:22:40.396Z,18.04
2022-10-03T19:25:19.820Z,18.04
2022-10-03T19:27:56.568Z,18.04
2022-10-03T19:30:28.664Z,18.05
2022-10-03T19:32:59.344Z,18.04
2022-10-03T19:35:27.138Z,18.04
2022-10-03T19:38:01.583Z,18.02
2022-10-03T19:40:42.637Z,17.97
2022-10-03T19:43:40.755Z,17.93
2022-10-03T19:46:24.186Z,17.88
2022-10-03T19:49:41.923Z,17.86
2022-10-03T19:52:28.348Z,17.82
2022-10-03T19:55:10.847Z,17.82
2022-10-03T19:57:41.461Z,17.80
2022-10-03T20:00:15.036Z,17.80
2022-10-03T20:06:07.787Z,17.78
2022-10-03T20:08:54.082Z,17.79
2022-10-03T20:11:47.903Z,17.78
2022-10-03T20:14:19.841Z,17.76
2022-10-03T20:16:48.861Z,17.76
2022-10-03T20:19:26.768Z,17.77
2022-10-03T20:21:56.508Z,17.75
2022-10-03T20:24:36.624Z,17.73
2022-10-03T20:27:16.543Z,17.68
2022-10-03T20:29:50.717Z,17.64
2022-10-03T20:32:17.997Z,17.59
2022-10-03T20:34:51.492Z,17.56
2022-10-03T20:37:36.782Z,17.53
2022-10-03T20:40:18.301Z,17.50
2022-10-03T20:42:47.576Z,17.46
2022-10-03T20:45:24.415Z,17.44
2022-10-03T20:48:00.691Z,17.39
2022-10-03T20:50:34.591Z,17.37
2022-10-03T20:53:03.076Z,17.36
2022-10-03T20:55:39.297Z,17.35
2022-10-03T20:58:16.423Z,17.35
2022-10-03T21:00:48.683Z,17.36
2022-10-03T21:03:26.526Z,17.37
2022-10-03T21:05:55.357Z,17.38
2022-10-03T21:08:40.479Z,17.39
2022-10-03T21:11:10.662Z,17.41
2022-10-03T21:13:55.737Z,17.41
2022-10-03T21:16:26.071Z,17.43
2022-10-03T21:18:57.855Z,17.43
2022-10-03T21:21:43.471Z,17.43
2022-10-03T21:24:16.974Z,17.44
2022-10-03T21:26:52.396Z,17.42
2022-10-03T21:29:25.487Z,17.42
2022-10-03T21:32:20.950Z,17.37
2022-10-03T21:35:27.947Z,17.33
2022-10-03T21:37:57.956Z,17.29
2022-10-03T21:40:37.063Z,17.27
2022-10-03T21:43:32.270Z,17.23
2022-10-03T21:46:08.802Z,17.19
2022-10-03T21:48:54.309Z,17.16
2022-10-03T21:51:23.948Z,17.11
2022-10-03T21:54:23.310Z,17.08
2022-10-03T21:56:57.433Z,17.02
2022-10-03T21:59:42.678Z,17.00
2022-10-03T22:02:24.682Z,16.97
2022-10-03T22:04:58.010Z,16.93
2022-10-03T22:07:38.110Z,16.90
2022-10-03T22:10:17.903Z,16.87
2022-10-03T22:12:50.446Z,16.83
2022-10-03T22:15:30.045Z,16.81
2022-10-03T22:18:23.173Z,16.78
2022-10-03T22:21:32.094Z,16.74
2022-10-03T22:24:43.931Z,16.71
2022-10-03T22:28:04.370Z,16.67
2022-10-03T22:30:38.871Z,16.63
2022-10-03T22:33:17.645Z,16.61
2022-10-03T22:35:47.505Z,16.57
2022-10-03T22:38:16.226Z,16.57
2022-10-03T22:40:43.669Z,16.57
2022-10-03T22:43:11.001Z,16.54
2022-10-03T22:45:43.056Z,16.54
2022-10-03T22:48:17.711Z,16.52
2022-10-03T22:50:44.638Z,16.51
2022-10-03T22:53:14.293Z,16.50
2022-10-03T22:55:44.484Z,16.50
2022-10-03T22:58:12.191Z,16.48
2022-10-03T23:00:41.386Z,16.49
2022-10-03T23:03:16.227Z,16.46
2022-10-03T23:06:17.048Z,16.45
2022-10-03T23:09:02.409Z,16.44
2022-10-03T23:11:31.655Z,16.43
2022-10-03T23:14:25.986Z,16.43
2022-10-03T23:17:41.001Z,16.41
2022-10-03T23:20:29.370Z,16.39
2022-10-03T23:23:08.138Z,16.37
2022-10-03T23:26:04.247Z,16.35
2022-10-03T23:29:00.061Z,16.32
2022-10-03T23:31:50.606Z,16.29
2022-10-03T23:34:54.787Z,16.25
2022-10-03T23:37:40.126Z,16.22
2022-10-03T23:40:07.018Z,16.18
2022-10-03T23:42:45.056Z,16.15
2022-10-03T23:45:16.888Z,16.11
2022-10-03T23:47:46.628Z,16.08
2022-10-03T23:50:19.444Z,16.04
2022-10-03T23:52:51.836Z,16.02
2022-10-03T23:55:22.978Z,15.98
2022-10-03T23:57:49.773Z,15.95
